Time;durP1;ratioP1;P1;durP2;ratioP2;P2;SDS_P1;SDS_P2;PMS_P1;PMS_P2;Temp;Humidity;BMP_temperature;BMP_pressure;BME280_temperature;BME280_humidity;BME280_pressure;Samples;Min_cycle;Max_cycle;Signal;HPM_P1;HPM_P2
2023/02/17 00:00:28;;;;;;;22.20;17.93;;;;;;;;;;5054635;28;20269;-56
2023/02/17 00:02:56;;;;;;;22.97;17.47;;;5.10;99.90;;;;;;5054424;28;20191;-55
2023/02/17 00:05:22;;;;;;;23.40;18.40;;;;;;;;;;5052512;28;20665;-54
2023/02/17 00:07:47;;;;;;;20.90;17.23;;;5.30;99.90;;;;;;5040945;28;20360;-52
2023/02/17 00:10:13;;;;;;;23.03;18.83;;;;;;;;;;5053878;28;20660;-55
2023/02/17 00:12:39;;;;;;;22.77;18.57;;;;;;;;;;5053794;28;20519;-54
2023/02/17 00:15:05;;;;;;;23.87;18.60;;;;;;;;;;5053707;28;20230;-54
2023/02/17 00:17:31;;;;;;;26.67;21.67;;;;;;;;;;5053698;28;20176;-55
2023/02/17 00:19:57;;;;;;;23.67;19.17;;;;;;;;;;5053957;28;20177;-55
2023/02/17 00:22:23;;;;;;;26.63;20.57;;;;;;;;;;5053554;28;20704;-55
2023/02/17 00:24:49;;;;;;;23.50;19.57;;;;;;;;;;5053616;28;20221;-52
2023/02/17 00:27:15;;;;;;;24.70;19.80;;;5.30;99.90;;;;;;5053600;28;20199;-52
2023/02/17 00:29:41;;;;;;;24.10;18.67;;;;;;;;;;5053832;28;20199;-52
2023/02/17 00:32:09;;;;;;;23.70;19.70;;;5.10;99.90;;;;;;5053471;28;20199;-52
2023/02/17 00:34:35;;;;;;;25.97;20.43;;;;;;;;;;5052568;28;20258;-52
2023/02/17 00:37:00;;;;;;;25.33;20.17;;;5.20;99.90;;;;;;5053358;28;20605;-55
2023/02/17 00:39:26;;;;;;;24.30;19.43;;;;;;;;;;5053397;28;20522;-56
2023/02/17 00:41:52;;;;;;;24.77;18.93;;;5.30;99.90;;;;;;5053742;28;20194;-52
2023/02/17 00:44:20;;;;;;;26.80;19.50;;;5.40;99.90;;;;;;5035592;28;20207;-53
2023/02/17 00:46:46;;;;;;;23.87;19.03;;;;;;;;;;5053121;28;20569;-52
2023/02/17 00:49:16;;;;;;;21.50;17.87;;;;;;;;;;5053345;28;20174;-54
2023/02/17 00:51:42;;;;;;;22.33;18.70;;;;;;;;;;5053328;28;20191;-53
2023/02/17 00:54:08;;;;;;;22.27;18.80;;;5.10;99.90;;;;;;5053474;28;20176;-52
2023/02/17 00:56:33;;;;;;;23.53;19.30;;;5.40;99.90;;;;;;5052999;28;20256;-52
2023/02/17 00:58:59;;;;;;;26.07;20.90;;;;;;;;;;5053202;28;20197;-57
2023/02/17 01:01:25;;;;;;;25.60;19.20;;;;;;;;;;5053118;28;20736;-52
2023/02/17 01:03:51;;;;;;;24.33;18.50;;;;;;;;;;5053093;28;20180;-52
2023/02/17 01:06:27;;;;;;;23.00;18.53;;;;;;;;;;5052908;28;20281;-54
2023/02/17 01:08:53;;;;;;;23.43;18.97;;;;;;;;;;5052846;28;20175;-55
2023/02/17 01:11:24;;;;;;;24.13;18.57;;;5.30;99.90;;;;;;5052908;28;20202;-53
2023/02/17 01:13:50;;;;;;;24.60;19.80;;;5.40;99.90;;;;;;5052410;28;20262;-52
2023/02/17 01:16:37;;;;;;;26.33;20.00;;;3.70;99.90;;;;;;5052408;28;20662;-55
2023/02/17 01:19:08;;;;;;;24.80;19.27;;;;;;;;;;5052822;28;20515;-52
2023/02/17 01:21:34;;;;;;;26.00;20.60;;;5.00;99.90;;;;;;5058307;28;20681;-53
2023/02/17 01:24:01;;;;;;;25.67;19.73;;;5.00;99.90;;;;;;5067393;28;20182;-52
2023/02/17 01:26:29;;;;;;;25.53;19.50;;;5.10;99.90;;;;;;5056260;28;20234;-52
2023/02/17 01:28:56;;;;;;;26.30;20.97;;;;;;;;;;5052156;28;20551;-55
2023/02/17 01:31:23;;;;;;;24.63;19.33;;;5.10;99.90;;;;;;5052205;28;20222;-52
2023/02/17 01:33:49;;;;;;;29.77;21.13;;;;;;;;;;5052382;28;20175;-55
2023/02/17 01:36:17;;;;;;;28.97;21.80;;;4.90;99.90;;;;;;5052638;28;20603;-55
2023/02/17 01:38:45;;;;;;;25.67;20.63;;;3.70;99.90;;;;;;5052024;28;20183;-54
2023/02/17 01:41:11;;;;;;;26.33;20.83;;;;;;;;;;5052158;28;20187;-55
2023/02/17 01:43:36;;;;;;;24.37;20.33;;;5.40;99.90;;;;;;5052269;28;20175;-53
2023/02/17 01:46:03;;;;;;;24.80;19.90;;;5.50;99.90;;;;;;5051351;28;20217;-52
2023/02/17 01:48:38;;;;;;;25.00;20.20;;;;;;;;;;5052085;28;20546;-55
2023/02/17 01:51:07;;;;;;;25.90;19.77;;;;;;;;;;5052215;28;20213;-52
2023/02/17 01:53:39;;;;;;;23.90;18.93;;;;;;;;;;5052256;28;20167;-53
2023/02/17 01:56:06;;;;;;;25.00;20.40;;;4.90;99.90;;;;;;5031948;28;20518;-52
2023/02/17 01:58:32;;;;;;;22.50;18.60;;;5.30;99.90;;;;;;5032078;28;20258;-55
2023/02/17 02:01:02;;;;;;;25.83;20.23;;;5.30;99.90;;;;;;5032660;28;20258;-55
2023/02/17 02:03:32;;;;;;;25.43;19.70;;;5.30;99.90;;;;;;5051495;28;20649;-55
2023/02/17 02:05:59;;;;;;;24.10;19.23;;;5.40;99.90;;;;;;5051846;28;20195;-52
2023/02/17 02:08:28;;;;;;;25.60;20.47;;;5.70;99.90;;;;;;5052036;28;20175;-55
2023/02/17 02:10:54;;;;;;;25.43;20.20;;;5.40;99.90;;;;;;5052146;28;20252;-55
2023/02/17 02:13:20;;;;;;;24.93;20.77;;;;;;;;;;5052303;28;20172;-54
2023/02/17 02:15:56;;;;;;;23.43;19.73;;;;;;;;;;5051982;28;20182;-54
2023/02/17 02:18:39;;;;;;;26.73;20.70;;;;;;;;;;5034069;28;20175;-52
2023/02/17 02:21:23;;;;;;;27.60;21.10;;;;;;;;;;5050310;28;20329;-55
2023/02/17 02:24:01;;;;;;;25.60;20.33;;;;;;;;;;5032097;28;20178;-54
2023/02/17 02:27:06;;;;;;;27.80;21.07;;;5.30;99.90;;;;;;5047078;28;20202;-56
2023/02/17 02:29:47;;;;;;;25.13;20.43;;;;;;;;;;5060714;28;20178;-54
2023/02/17 02:32:28;;;;;;;27.23;20.90;;;;;;;;;;5071521;28;20793;-52
2023/02/17 02:35:26;;;;;;;25.47;20.43;;;;;;;;;;5065931;28;20571;-55
2023/02/17 02:37:52;;;;;;;27.97;21.87;;;;;;;;;;4970139;28;20193;-54
2023/02/17 02:40:23;;;;;;;28.87;21.80;;;5.60;99.90;;;;;;4970392;28;20186;-55
2023/02/17 02:42:49;;;;;;;28.83;21.93;;;5.60;99.90;;;;;;4970899;28;20265;-55
2023/02/17 02:45:17;;;;;;;28.80;22.33;;;5.50;99.90;;;;;;4969460;28;20239;-53
2023/02/17 02:47:54;;;;;;;29.80;23.60;;;5.50;99.90;;;;;;4969652;28;20190;-54
2023/02/17 02:50:41;;;;;;;29.50;22.00;;;5.50;99.90;;;;;;4969959;28;20255;-50
2023/02/17 02:53:09;;;;;;;25.83;20.43;;;;;;;;;;4979132;28;20204;-55
2023/02/17 02:56:01;;;;;;;26.07;21.17;;;5.40;99.90;;;;;;4970334;28;20190;-53
2023/02/17 02:58:48;;;;;;;25.60;20.20;;;5.50;99.90;;;;;;4969606;28;20268;-53
2023/02/17 03:01:16;;;;;;;29.33;21.03;;;5.50;99.90;;;;;;4970793;28;20217;-52
2023/02/17 03:03:51;;;;;;;27.70;20.73;;;5.40;99.90;;;;;;4969993;28;20185;-53
2023/02/17 03:06:39;;;;;;;25.00;19.90;;;5.50;99.90;;;;;;4970117;28;20338;-52
2023/02/17 03:09:11;;;;;;;27.73;21.50;;;;;;;;;;4970111;28;20620;-56
2023/02/17 03:11:37;;;;;;;27.17;21.10;;;5.40;99.90;;;;;;4969567;28;20252;-55
2023/02/17 03:14:06;;;;;;;21.57;18.53;;;5.60;99.90;;;;;;5031127;28;20179;-52
2023/02/17 03:16:33;;;;;;;24.37;19.53;;;5.70;99.90;;;;;;5050858;28;20209;-56
2023/02/17 03:18:59;;;;;;;26.37;20.70;;;;;;;;;;5050774;28;20220;-54
2023/02/17 03:21:31;;;;;;;27.37;21.53;;;5.50;99.90;;;;;;5052279;28;20203;-55
2023/02/17 03:23:57;;;;;;;24.10;19.30;;;5.50;99.90;;;;;;5070302;28;20186;-52
2023/02/17 03:26:23;;;;;;;27.80;22.03;;;5.60;99.90;;;;;;5056650;28;20217;-54
2023/02/17 03:28:48;;;;;;;25.23;20.37;;;;;;;;;;5055345;28;20186;-54
2023/02/17 03:31:14;;;;;;;25.10;20.07;;;;;;;;;;5051050;28;20206;-54
2023/02/17 03:33:40;;;;;;;25.90;20.30;;;;;;;;;;5050743;28;20179;-54
2023/02/17 03:36:06;;;;;;;24.43;19.83;;;5.50;99.90;;;;;;5050949;28;20658;-52
2023/02/17 03:38:32;;;;;;;26.77;20.90;;;;;;;;;;5050814;28;20191;-55
2023/02/17 03:40:58;;;;;;;27.23;22.07;;;5.60;99.90;;;;;;5066954;28;20210;-53
2023/02/17 03:43:23;;;;;;;27.50;21.20;;;5.80;99.90;;;;;;5052503;28;20685;-56
2023/02/17 03:45:49;;;;;;;27.33;22.17;;;;;;;;;;5061857;28;20207;-57
2023/02/17 03:48:15;;;;;;;28.17;21.80;;;;;;;;;;5056375;28;20182;-57
2023/02/17 03:50:41;;;;;;;31.27;23.50;;;;;;;;;;5065709;28;20686;-56
2023/02/17 03:53:07;;;;;;;26.30;20.97;;;;;;;;;;5050948;28;20550;-55
2023/02/17 03:55:33;;;;;;;26.83;21.63;;;;;;;;;;5063005;28;20791;-54
2023/02/17 03:57:59;;;;;;;25.27;19.37;;;6.20;99.90;;;;;;5070464;28;20189;-54
2023/02/17 04:00:24;;;;;;;24.20;19.43;;;5.80;99.90;;;;;;5055118;28;20214;-55
2023/02/17 04:02:50;;;;;;;27.57;21.67;;;5.80;99.90;;;;;;5050795;28;20573;-55
2023/02/17 04:05:15;;;;;;;26.40;21.70;;;5.80;99.90;;;;;;5050966;28;20266;-55
2023/02/17 04:07:42;;;;;;;24.87;20.07;;;5.70;99.90;;;;;;5051984;28;20186;-54
2023/02/17 04:10:08;;;;;;;26.93;21.67;;;;;;;;;;5056628;28;20179;-55
2023/02/17 04:12:33;;;;;;;26.37;21.07;;;5.70;99.90;;;;;;5059867;28;20186;-53
2023/02/17 04:14:59;;;;;;;25.00;20.43;;;5.80;99.90;;;;;;5064980;28;20527;-55
2023/02/17 04:17:24;;;;;;;29.13;22.37;;;5.70;99.90;;;;;;5035802;28;20193;-53
2023/02/17 04:19:50;;;;;;;30.63;23.73;;;5.90;99.90;;;;;;5062274;28;20191;-52
2023/02/17 04:22:15;;;;;;;30.77;22.97;;;5.80;99.90;;;;;;5053793;28;20260;-53
2023/02/17 04:24:41;;;;;;;32.77;25.70;;;5.70;99.90;;;;;;5055127;28;20270;-55
2023/02/17 04:27:07;;;;;;;29.23;22.50;;;;;;;;;;5054717;28;20218;-55
2023/02/17 04:29:33;;;;;;;24.27;19.57;;;7.30;99.90;;;;;;5058718;28;20179;-57
2023/02/17 04:31:59;;;;;;;25.87;19.93;;;;;;;;;;5053410;28;20206;-57
2023/02/17 04:34:25;;;;;;;24.70;19.87;;;;;;;;;;5056999;28;20661;-53
2023/02/17 04:36:51;;;;;;;23.17;19.67;;;;;;;;;;5055350;28;20526;-52
2023/02/17 04:39:17;;;;;;;26.90;19.23;;;5.90;99.90;;;;;;5052140;28;20180;-52
2023/02/17 04:41:43;;;;;;;24.07;19.37;;;;;;;;;;5054747;28;20226;-53
2023/02/17 04:44:09;;;;;;;24.23;19.63;;;5.80;99.90;;;;;;5059425;28;20191;-53
2023/02/17 04:46:34;;;;;;;26.50;20.97;;;6.00;99.90;;;;;;5053716;28;20747;-56
2023/02/17 04:49:00;;;;;;;27.83;20.87;;;;;;;;;;5053054;28;20248;-57
2023/02/17 04:51:26;;;;;;;27.97;21.37;;;;;;;;;;5061714;28;20297;-57
2023/02/17 04:53:52;;;;;;;25.80;21.27;;;5.80;99.90;;;;;;5053517;28;20187;-52
2023/02/17 04:56:17;;;;;;;26.70;21.20;;;6.00;99.90;;;;;;5054439;28;20245;-52
2023/02/17 04:58:43;;;;;;;28.10;21.20;;;5.80;99.90;;;;;;5053096;28;20175;-53
2023/02/17 05:01:09;;;;;;;26.50;20.87;;;5.90;99.90;;;;;;5056266;28;20239;-56
2023/02/17 05:03:35;;;;;;;26.13;20.53;;;6.10;99.90;;;;;;5061023;28;20194;-52
2023/02/17 05:06:01;;;;;;;25.73;20.90;;;;;;;;;;5055937;28;20206;-52
2023/02/17 05:08:27;;;;;;;27.03;21.50;;;;;;;;;;5072639;22;20497;-57
2023/02/17 05:10:52;;;;;;;28.63;22.47;;;6.20;99.90;;;;;;5054324;28;20188;-58
2023/02/17 05:13:18;;;;;;;23.27;19.43;;;6.10;99.90;;;;;;5053469;28;20229;-55
2023/02/17 05:15:44;;;;;;;25.93;21.10;;;6.10;99.90;;;;;;5057799;28;20194;-59
2023/02/17 05:18:11;;;;;;;25.63;19.63;;;6.20;99.90;;;;;;5062272;28;20546;-60
2023/02/17 05:20:36;;;;;;;23.63;19.53;;;6.10;99.90;;;;;;5056749;28;20182;-61
2023/02/17 05:23:02;;;;;;;23.50;19.40;;;6.10;99.90;;;;;;5071001;28;20692;-61
2023/02/17 05:25:28;;;;;;;22.90;18.70;;;;;;;;;;5059141;28;20680;-60
2023/02/17 05:27:54;;;;;;;23.80;19.40;;;;;;;;;;5059286;28;20594;-58
2023/02/17 05:30:20;;;;;;;23.23;18.90;;;;;;;;;;5052613;28;20179;-61
2023/02/17 05:32:45;;;;;;;24.03;19.13;;;6.00;99.90;;;;;;5070566;28;20229;-56
2023/02/17 05:35:12;;;;;;;24.30;19.20;;;;;;;;;;5072598;28;20213;-59
2023/02/17 05:37:38;;;;;;;26.27;22.23;;;;;;;;;;5054063;28;20290;-59
2023/02/17 05:40:05;;;;;;;24.63;20.50;;;6.10;99.90;;;;;;5066109;28;20282;-61
2023/02/17 05:42:30;;;;;;;28.00;21.27;;;;;;;;;;5067597;28;20350;-61
2023/02/17 05:44:56;;;;;;;25.13;20.27;;;;;;;;;;5051993;28;20688;-60
2023/02/17 05:47:23;;;;;;;23.40;19.47;;;6.10;99.90;;;;;;5052028;28;20179;-60
2023/02/17 05:49:48;;;;;;;23.47;18.77;;;5.80;99.90;;;;;;5052125;28;20198;-59
2023/02/17 05:52:15;;;;;;;22.97;18.77;;;;;;;;;;5052387;28;20171;-60
2023/02/17 05:54:41;;;;;;;22.23;18.63;;;;;;;;;;5052436;28;20206;-59
2023/02/17 05:57:07;;;;;;;25.57;21.10;;;;;;;;;;5051755;28;20175;-59
2023/02/17 05:59:33;;;;;;;25.23;19.37;;;;;;;;;;5052102;28;20366;-62
2023/02/17 06:01:59;;;;;;;26.17;22.10;;;5.90;99.90;;;;;;5057935;28;20175;-59
2023/02/17 06:04:24;;;;;;;27.57;24.57;;;5.90;99.90;;;;;;5063001;28;20190;-60
2023/02/17 06:06:50;;;;;;;27.40;22.57;;;6.00;99.90;;;;;;5070274;28;20696;-61
2023/02/17 06:09:16;;;;;;;26.20;21.20;;;6.00;99.90;;;;;;5071956;28;20213;-61
2023/02/17 06:11:42;;;;;;;27.47;21.50;;;;;;;;;;5064047;28;20665;-58
2023/02/17 06:14:07;;;;;;;26.87;22.37;;;6.10;99.90;;;;;;5062824;28;20171;-60
2023/02/17 06:16:33;;;;;;;26.87;21.30;;;6.10;99.90;;;;;;5033605;28;20189;-59
2023/02/17 06:19:03;;;;;;;26.40;21.10;;;6.20;99.90;;;;;;5051531;28;20803;-58
2023/02/17 06:21:29;;;;;;;25.33;20.80;;;6.10;99.90;;;;;;5052114;28;20638;-59
2023/02/17 06:23:55;;;;;;;25.83;19.97;;;6.40;99.90;;;;;;5051840;28;20228;-60
2023/02/17 06:26:21;;;;;;;25.80;21.17;;;;;;;;;;5051901;28;20210;-62
2023/02/17 06:28:47;;;;;;;28.10;22.60;;;;;;;;;;5051798;28;20206;-62
2023/02/17 06:31:13;;;;;;;25.47;21.87;;;;;;;;;;5034185;28;20176;-61
2023/02/17 06:33:38;;;;;;;26.50;18.83;;;6.30;99.90;;;;;;5048251;28;20706;-60
2023/02/17 06:36:04;;;;;;;26.00;21.07;;;6.40;99.90;;;;;;5049353;28;20301;-58
2023/02/17 06:38:30;;;;;;;24.10;19.60;;;6.20;99.90;;;;;;5056942;28;20272;-60
2023/02/17 06:40:56;;;;;;;24.77;20.70;;;;;;;;;;5053858;28;20638;-62
2023/02/17 06:43:21;;;;;;;21.10;18.37;;;6.00;99.90;;;;;;5050668;28;20669;-61
2023/02/17 06:45:47;;;;;;;25.03;19.63;;;6.10;99.90;;;;;;5050496;28;20237;-59
2023/02/17 06:48:12;;;;;;;24.80;19.57;;;6.10;99.90;;;;;;5053410;28;20215;-58
2023/02/17 06:50:38;;;;;;;23.87;19.47;;;6.30;99.90;;;;;;5063819;28;20600;-61
2023/02/17 06:53:04;;;;;;;23.77;19.63;;;6.20;99.90;;;;;;5054362;28;20187;-61
2023/02/17 06:55:30;;;;;;;24.50;20.03;;;;;;;;;;5059126;28;20613;-60
2023/02/17 06:57:56;;;;;;;24.33;19.43;;;6.00;99.90;;;;;;5062888;28;20237;-60
2023/02/17 07:00:22;;;;;;;22.70;19.27;;;6.30;99.90;;;;;;5036265;28;20183;-61
2023/02/17 07:02:47;;;;;;;25.50;19.80;;;6.20;99.90;;;;;;5053960;28;20592;-60
2023/02/17 07:05:13;;;;;;;25.67;20.03;;;6.10;99.90;;;;;;5051836;28;20199;-59
2023/02/17 07:07:39;;;;;;;26.07;19.83;;;;;;;;;;5050151;28;20545;-56
2023/02/17 07:10:05;;;;;;;26.67;19.63;;;6.20;99.90;;;;;;5051101;28;20217;-60
2023/02/17 07:12:31;;;;;;;27.03;22.13;;;6.20;99.90;;;;;;5051130;28;20171;-61
2023/02/17 07:14:57;;;;;;;29.17;23.27;;;;;;;;;;5051479;28;20277;-60
2023/02/17 07:17:22;;;;;;;25.57;20.43;;;6.30;99.90;;;;;;5050888;28;20175;-58
2023/02/17 07:19:48;;;;;;;24.03;18.53;;;6.70;99.90;;;;;;5051356;28;20202;-58
2023/02/17 07:22:13;;;;;;;24.87;20.30;;;6.70;99.90;;;;;;5051385;28;20588;-60
2023/02/17 07:24:39;;;;;;;27.47;21.63;;;;;;;;;;5051299;28;20195;-60
2023/02/17 07:27:07;;;;;;;24.47;20.13;;;;;;;;;;5051506;28;20175;-59
2023/02/17 07:29:33;;;;;;;24.43;19.23;;;6.30;99.90;;;;;;5051268;28;20187;-60
2023/02/17 07:31:58;;;;;;;27.43;20.90;;;6.60;99.90;;;;;;5051378;28;20171;-61
2023/02/17 07:34:24;;;;;;;23.70;18.57;;;6.50;99.90;;;;;;5051197;28;20175;-60
2023/02/17 07:36:50;;;;;;;22.83;18.90;;;;;;;;;;5051103;28;20177;-61
2023/02/17 07:39:15;;;;;;;23.73;19.27;;;6.60;99.90;;;;;;5051326;28;20477;-62
2023/02/17 07:41:41;;;;;;;23.27;19.10;;;6.80;99.90;;;;;;5051067;28;20179;-62
2023/02/17 07:44:08;;;;;;;27.83;21.80;;;7.00;99.90;;;;;;5053437;28;20179;-60
2023/02/17 07:46:35;;;;;;;24.70;20.90;;;;;;;;;;5053967;28;20187;-61
2023/02/17 07:49:00;;;;;;;24.93;19.97;;;;;;;;;;5054820;28;20188;-61
2023/02/17 07:51:27;;;;;;;29.30;19.77;;;;;;;;;;5055015;28;20205;-60
2023/02/17 07:53:53;;;;;;;24.47;20.50;;;;;;;;;;5055041;28;20175;-60
2023/02/17 07:56:22;;;;;;;24.17;19.57;;;6.50;99.90;;;;;;5064115;28;20265;-60
2023/02/17 07:58:48;;;;;;;22.23;19.60;;;6.90;99.90;;;;;;5056588;28;20206;-61
2023/02/17 08:01:20;;;;;;;24.20;19.67;;;6.70;99.90;;;;;;5054778;28;20178;-62
2023/02/17 08:03:47;;;;;;;23.37;19.77;;;7.10;99.90;;;;;;5035861;28;20187;-61
2023/02/17 08:06:17;;;;;;;28.37;21.60;;;;;;;;;;5058714;28;20264;-60
2023/02/17 08:14:12;;;;;;;22.87;18.90;;;7.20;99.90;;;;;;5049437;28;20555;-61
2023/02/17 08:16:39;;;;;;;23.73;20.30;;;7.20;99.90;;;;;;5054225;28;20179;-60
2023/02/17 08:19:05;;;;;;;25.80;20.07;;;7.00;99.90;;;;;;5054447;28;20218;-55
2023/02/17 08:21:31;;;;;;;23.17;18.80;;;7.00;99.90;;;;;;5057298;28;20560;-59
2023/02/17 08:23:56;;;;;;;23.17;19.20;;;6.80;99.90;;;;;;5055498;28;20213;-61
2023/02/17 08:26:22;;;;;;;23.87;19.87;;;;;;;;;;5055867;28;20687;-58
2023/02/17 08:28:48;;;;;;;24.13;19.60;;;7.20;99.90;;;;;;5054216;28;20677;-59
2023/02/17 08:31:33;;;;;;;24.33;19.93;;;6.80;99.90;;;;;;5056695;28;20179;-60
2023/02/17 08:34:01;;;;;;;25.23;20.47;;;7.80;99.90;;;;;;5073710;28;20166;-59
2023/02/17 08:36:28;;;;;;;23.87;19.97;;;6.90;99.90;;;;;;5052170;28;20183;-61
2023/02/17 08:38:54;;;;;;;33.13;25.87;;;7.00;99.90;;;;;;5053513;28;20203;-62
2023/02/17 08:41:28;;;;;;;31.87;26.13;;;7.10;99.90;;;;;;5054139;28;20225;-62
2023/02/17 08:43:55;;;;;;;31.80;23.67;;;7.30;99.90;;;;;;5054080;28;20182;-63
2023/02/17 08:46:21;;;;;;;28.00;22.77;;;7.10;99.90;;;;;;5053369;28;20210;-60
2023/02/17 08:48:47;;;;;;;29.57;23.00;;;;;;;;;;5055073;28;20219;-60
2023/02/17 08:51:14;;;;;;;27.90;21.80;;;7.00;99.90;;;;;;5055562;28;20183;-61
2023/02/17 08:53:41;;;;;;;31.90;25.47;;;7.40;99.90;;;;;;5052661;28;20175;-62
2023/02/17 08:56:06;;;;;;;35.63;29.37;;;7.50;99.90;;;;;;5052851;28;20217;-60
2023/02/17 08:58:32;;;;;;;27.07;21.63;;;7.40;99.90;;;;;;5054100;28;20199;-63
2023/02/17 09:00:58;;;;;;;27.60;22.23;;;;;;;;;;5051902;28;20175;-63
2023/02/17 09:03:24;;;;;;;25.37;21.37;;;;;;;;;;5052704;28;20248;-60
2023/02/17 09:05:54;;;;;;;26.77;20.93;;;7.60;99.90;;;;;;5053207;28;20210;-61
2023/02/17 09:08:19;;;;;;;29.23;22.60;;;7.60;99.90;;;;;;5053035;28;20206;-63
2023/02/17 09:10:45;;;;;;;24.03;19.63;;;7.60;99.90;;;;;;5053370;28;20179;-63
2023/02/17 09:13:11;;;;;;;26.17;22.17;;;7.60;99.90;;;;;;5057067;28;20657;-60
2023/02/17 09:15:37;;;;;;;35.33;30.07;;;;;;;;;;5055905;28;20550;-64
2023/02/17 09:18:03;;;;;;;24.27;20.87;;;;;;;;;;5052577;28;20187;-63
2023/02/17 09:20:28;;;;;;;23.33;19.00;;;7.90;99.90;;;;;;5053850;28;20740;-61
2023/02/17 09:22:54;;;;;;;23.90;19.37;;;8.20;99.90;;;;;;5053531;28;20209;-61
2023/02/17 09:25:19;;;;;;;25.67;20.87;;;8.00;99.90;;;;;;5053258;28;20194;-63
2023/02/17 09:27:45;;;;;;;22.07;17.27;;;;;;;;;;5050514;28;20179;-62
2023/02/17 09:30:12;;;;;;;22.43;17.50;;;;;;;;;;5052047;28;20223;-61
2023/02/17 09:32:40;;;;;;;20.67;17.77;;;8.40;99.90;;;;;;5053484;28;20214;-62
2023/02/17 09:35:06;;;;;;;19.03;16.20;;;8.30;99.90;;;;;;5052848;28;20240;-58
2023/02/17 09:37:32;;;;;;;24.70;22.20;;;8.10;99.90;;;;;;5052967;28;20596;-60
2023/02/17 09:39:58;;;;;;;22.50;17.00;;;;;;;;;;5057869;28;20257;-61
2023/02/17 09:42:26;;;;;;;21.37;18.60;;;8.50;99.90;;;;;;5059913;28;20218;-57
2023/02/17 09:45:03;;;;;;;20.37;18.23;;;8.60;99.90;;;;;;5052515;28;20182;-62
2023/02/17 09:47:36;;;;;;;18.57;16.53;;;8.50;99.90;;;;;;5053915;28;20227;-60
2023/02/17 09:50:08;;;;;;;21.50;18.67;;;8.80;99.90;;;;;;5059557;28;20193;-58
2023/02/17 09:52:42;;;;;;;28.43;23.37;;;8.60;99.90;;;;;;5063850;28;20175;-60
2023/02/17 09:55:17;;;;;;;29.03;25.47;;;;;;;;;;5055420;28;20169;-62
2023/02/17 09:58:14;;;;;;;26.37;20.53;;;9.10;99.90;;;;;;5041619;28;20680;-63
2023/02/17 10:00:45;;;;;;;18.17;15.43;;;;;;;;;;4968607;28;20662;-63
2023/02/17 10:03:11;;;;;;;18.43;15.80;;;;;;;;;;4953842;28;20713;-64
2023/02/17 10:05:42;;;;;;;18.87;16.10;;;9.30;99.90;;;;;;4954437;28;20293;-62
2023/02/17 10:08:14;;;;;;;18.37;15.87;;;;;;;;;;4951183;29;20265;-62
2023/02/17 10:11:07;;;;;;;19.90;17.43;;;9.60;99.90;;;;;;4952165;29;20265;-62
2023/02/17 10:13:34;;;;;;;17.87;15.37;;;9.60;99.90;;;;;;4951281;29;20673;-62
2023/02/17 10:16:08;;;;;;;16.17;14.37;;;9.90;99.90;;;;;;4950509;29;20658;-64
2023/02/17 10:18:40;;;;;;;15.97;14.13;;;9.40;99.90;;;;;;4966337;28;20587;-62
2023/02/17 10:21:21;;;;;;;15.57;13.83;;;;;;;;;;4959258;28;20218;-64
2023/02/17 10:23:46;;;;;;;15.17;12.37;;;9.60;99.90;;;;;;4968648;28;20196;-64
2023/02/17 10:26:21;;;;;;;13.50;12.10;;;10.00;99.90;;;;;;4967089;28;20194;-64
2023/02/17 10:29:13;;;;;;;19.63;14.03;;;10.10;99.90;;;;;;4951655;28;20783;-62
2023/02/17 10:31:39;;;;;;;16.60;13.77;;;;;;;;;;4951512;29;20246;-63
2023/02/17 10:34:23;;;;;;;14.27;12.77;;;10.30;99.90;;;;;;4951902;29;20182;-62
2023/02/17 10:37:02;;;;;;;14.23;12.43;;;;;;;;;;4978239;28;20226;-61
2023/02/17 10:39:48;;;;;;;15.60;12.47;;;10.40;99.90;;;;;;5051699;28;20563;-63
2023/02/17 10:42:25;;;;;;;13.50;11.90;;;10.70;99.90;;;;;;5052007;28;20171;-62
2023/02/17 10:44:55;;;;;;;15.87;13.07;;;10.70;99.90;;;;;;5063552;28;20235;-62
2023/02/17 10:47:21;;;;;;;13.53;11.37;;;10.80;99.90;;;;;;5041558;28;20638;-61
2023/02/17 10:49:51;;;;;;;13.03;11.00;;;11.10;99.90;;;;;;5062590;28;20202;-64
2023/02/17 10:52:17;;;;;;;11.67;9.73;;;;;;;;;;5049311;28;20186;-64
2023/02/17 10:54:49;;;;;;;12.97;10.93;;;11.70;99.90;;;;;;5051244;28;20616;-61
2023/02/17 10:57:17;;;;;;;12.70;11.40;;;11.80;99.90;;;;;;5051268;28;20259;-63
2023/02/17 10:59:45;;;;;;;11.87;10.47;;;12.10;99.90;;;;;;5051334;28;20222;-64
2023/02/17 11:02:39;;;;;;;13.47;11.13;;;12.10;99.90;;;;;;5051207;28;20210;-62
2023/02/17 11:05:06;;;;;;;12.43;11.13;;;12.40;99.90;;;;;;5050882;28;20282;-63
2023/02/17 11:07:33;;;;;;;11.07;9.80;;;13.10;99.90;;;;;;5051260;28;20291;-62
2023/02/17 11:10:02;;;;;;;13.93;11.93;;;12.90;99.90;;;;;;5058426;28;20301;-64
2023/02/17 11:12:56;;;;;;;13.73;12.30;;;12.90;99.90;;;;;;5051825;28;20642;-61
2023/02/17 11:15:26;;;;;;;13.37;11.97;;;12.80;99.90;;;;;;5049001;28;20669;-63
2023/02/17 11:17:52;;;;;;;12.00;10.70;;;12.70;99.90;;;;;;5064619;28;20193;-63
2023/02/17 11:20:18;;;;;;;12.43;10.70;;;12.60;99.90;;;;;;5075664;28;20194;-62
2023/02/17 11:22:46;;;;;;;11.90;10.40;;;12.30;99.90;;;;;;5068719;28;20185;-62
2023/02/17 11:25:23;;;;;;;12.90;11.40;;;;;;;;;;5066458;28;20926;-62
2023/02/17 11:27:55;;;;;;;12.87;11.07;;;12.40;99.90;;;;;;5054795;28;20182;-64
2023/02/17 11:30:21;;;;;;;16.33;11.07;;;12.20;99.90;;;;;;5036178;28;20179;-60
2023/02/17 11:32:47;;;;;;;14.87;13.20;;;12.20;99.90;;;;;;5041967;28;20187;-64
2023/02/17 11:35:25;;;;;;;15.93;12.50;;;12.20;99.90;;;;;;5055090;28;20656;-64
2023/02/17 11:37:51;;;;;;;15.53;13.10;;;12.60;99.90;;;;;;5055113;28;20676;-63
2023/02/17 11:40:25;;;;;;;15.47;13.80;;;12.20;99.90;;;;;;5055250;28;20198;-64
2023/02/17 11:42:56;;;;;;;13.13;11.67;;;12.30;99.90;;;;;;5058573;28;20224;-63
2023/02/17 11:45:23;;;;;;;13.80;11.43;;;12.30;99.90;;;;;;5075078;28;20190;-62
2023/02/17 11:47:49;;;;;;;13.13;11.27;;;;;;;;;;5074627;28;20628;-62
2023/02/17 11:50:20;;;;;;;12.97;11.10;;;12.60;99.90;;;;;;5075376;28;20191;-63
2023/02/17 11:52:46;;;;;;;12.63;10.63;;;12.40;99.90;;;;;;5075119;28;20536;-64
2023/02/17 11:55:28;;;;;;;13.90;11.50;;;12.70;99.90;;;;;;5073297;28;20182;-63
2023/02/17 11:58:25;;;;;;;11.50;10.30;;;12.80;99.90;;;;;;5074364;28;20190;-63
2023/02/17 12:01:14;;;;;;;13.50;10.47;;;13.00;99.90;;;;;;4953989;28;20195;-63
2023/02/17 12:04:01;;;;;;;13.57;11.50;;;13.20;99.90;;;;;;4954414;29;20191;-63
2023/02/17 12:06:54;;;;;;;10.03;8.93;;;13.10;99.90;;;;;;4957603;28;20294;-64
2023/02/17 12:09:22;;;;;;;12.13;9.87;;;12.90;99.90;;;;;;4957084;28;20214;-64
2023/02/17 12:12:04;;;;;;;12.53;9.63;;;13.20;99.90;;;;;;4954219;28;20254;-63
2023/02/17 12:14:54;;;;;;;10.47;9.37;;;13.00;99.90;;;;;;4948696;28;20237;-65
2023/02/17 12:17:43;;;;;;;10.87;9.33;;;;;;;;;;4947289;28;20210;-65
2023/02/17 12:20:35;;;;;;;11.47;8.97;;;;;;;;;;4952253;28;20274;-63
2023/02/17 12:23:33;;;;;;;10.93;9.83;;;13.40;99.90;;;;;;4941472;28;20199;-65
2023/02/17 12:26:23;;;;;;;13.27;10.77;;;13.40;99.90;;;;;;4953526;28;20758;-66
2023/02/17 12:28:51;;;;;;;14.00;12.00;;;13.60;99.90;;;;;;4954498;28;20293;-64
2023/02/17 12:31:41;;;;;;;13.93;12.53;;;13.80;99.90;;;;;;4950037;28;20194;-65
2023/02/17 12:34:16;;;;;;;13.90;11.97;;;13.20;99.90;;;;;;4954195;28;20206;-62
2023/02/17 12:36:42;;;;;;;13.20;11.80;;;13.10;99.90;;;;;;4959231;28;20226;-65
2023/02/17 12:39:31;;;;;;;13.20;11.77;;;13.10;99.90;;;;;;5053536;28;20636;-65
2023/02/17 12:42:11;;;;;;;12.63;11.33;;;13.40;99.90;;;;;;4965174;28;20205;-64
2023/02/17 12:44:49;;;;;;;11.67;9.20;;;12.40;99.90;;;;;;4953282;29;20198;-64
2023/02/17 12:47:23;;;;;;;10.97;9.53;;;12.60;99.90;;;;;;4953288;28;20191;-64
2023/02/17 12:49:54;;;;;;;15.53;10.33;;;12.70;99.90;;;;;;4947424;28;20213;-64
2023/02/17 12:52:35;;;;;;;10.80;8.63;;;12.10;99.90;;;;;;4938526;28;20182;-63
2023/02/17 12:55:19;;;;;;;11.30;8.93;;;12.20;99.90;;;;;;4960866;28;20187;-64
2023/02/17 12:57:45;;;;;;;8.93;7.67;;;;;;;;;;4952935;29;20275;-64
2023/02/17 13:00:18;;;;;;;10.03;8.13;;;12.40;99.90;;;;;;4952854;29;20297;-62
2023/02/17 13:02:45;;;;;;;14.30;9.47;;;12.20;99.90;;;;;;4953333;29;20185;-63
2023/02/17 13:05:46;;;;;;;10.63;8.10;;;12.30;99.90;;;;;;4956731;28;20240;-63
2023/02/17 13:08:26;;;;;;;10.63;8.40;;;12.20;99.90;;;;;;4917895;29;20202;-63
2023/02/17 13:11:02;;;;;;;10.00;8.33;;;;;;;;;;4914900;29;20579;-65
2023/02/17 13:13:30;;;;;;;10.97;7.80;;;12.40;99.90;;;;;;4932557;29;20222;-65
2023/02/17 13:16:10;;;;;;;13.23;9.67;;;12.70;99.90;;;;;;4933264;29;20824;-64
2023/02/17 13:18:38;;;;;;;12.33;9.50;;;12.70;99.90;;;;;;4945575;28;20213;-64
2023/02/17 13:21:19;;;;;;;12.20;9.70;;;12.50;99.90;;;;;;4971857;28;20202;-64
2023/02/17 13:23:56;;;;;;;10.83;8.97;;;;;;;;;;4971712;28;20228;-64
2023/02/17 13:26:22;;;;;;;12.37;10.30;;;;;;;;;;4971470;28;20213;-64